Arlington Heights, Illinois
Current Conditions -  °F | °C
As of 2:02 PM on Sunday 25 Jan 2015 (Local Time) from KPWK Reporting Station
Light Snow Light Snow  
Wind Chill: 14°   Ceiling: 2000
Heat Index: 27°   Visibility: 3mi
Dew Point: 21°   Wind: 20mph
Humidity: 78%   Direction: 20°NNE
Pressure: 29.87"   Gusts: 30mph
Location:  42.14°N, 87.99°W
Report Text: KPWK 252002Z 02017G26KT 3SM -SN OVC020 M03/M06 A2987 RMK AO2 PK WND 02026/2002 P0000 T10281061
Loading
Personal Weather Stations






























Interactive Weather Map New forecast layout! Learn more

10-Day Weather Forecast

Advertisements
Track Severe Weather on mobile